Time;durP1;ratioP1;P1;durP2;ratioP2;P2;SDS_P1;SDS_P2;PMS_P1;PMS_P2;Temp;Humidity;BMP_temperature;BMP_pressure;BME280_temperature;BME280_humidity;BME280_pressure;Samples;Min_cycle;Max_cycle;Signal;HPM_P1;HPM_P2
2022/08/04 00:00:15;;;;;;;9.15;3.28;;;19.40;99.90;;;;;;6162969;23;20040;-81
2022/08/04 00:03:02;;;;;;;10.07;3.15;;;19.50;99.90;;;;;;6138209;23;20021;-80
2022/08/04 00:05:29;;;;;;;10.00;3.40;;;19.60;99.90;;;;;;6162499;23;20071;-81
2022/08/04 00:08:10;;;;;;;9.38;3.33;;;19.60;99.90;;;;;;6160170;23;20013;-81
2022/08/04 00:10:39;;;;;;;8.38;3.10;;;19.60;99.90;;;;;;6160105;23;20320;-82
2022/08/04 00:13:06;;;;;;;9.20;3.30;;;19.60;99.90;;;;;;6162544;23;20017;-81
2022/08/04 00:15:33;;;;;;;7.75;3.10;;;19.50;99.90;;;;;;6187196;23;20469;-82
2022/08/04 00:18:03;;;;;;;7.93;3.22;;;19.60;99.90;;;;;;6162150;23;20021;-81
2022/08/04 00:20:36;;;;;;;6.38;3.55;;;19.60;99.90;;;;;;6160100;23;20013;-81
2022/08/04 00:23:03;;;;;;;5.80;2.88;;;19.60;99.90;;;;;;6187304;23;20067;-80
2022/08/04 00:25:30;;;;;;;6.75;3.30;;;19.90;99.90;;;;;;6162447;23;20032;-81
2022/08/04 00:27:56;;;;;;;7.38;3.70;;;19.50;99.90;;;;;;6189490;23;20800;-80
2022/08/04 00:30:23;;;;;;;7.13;3.03;;;19.50;99.90;;;;;;6160680;23;20067;-83
2022/08/04 00:32:49;;;;;;;9.07;2.80;;;19.50;99.90;;;;;;6186955;23;20009;-82
2022/08/04 00:35:15;;;;;;;5.63;2.35;;;19.50;99.90;;;;;;6160379;23;20084;-81
2022/08/04 00:37:43;;;;;;;8.23;2.70;;;19.40;99.90;;;;;;6160970;23;20524;-83
2022/08/04 00:40:51;;;;;;;8.15;3.35;;;19.40;99.90;;;;;;6161584;23;20027;-81
2022/08/04 00:43:20;;;;;;;10.48;3.20;;;19.30;99.90;;;;;;6135952;23;20066;-83
2022/08/04 00:46:02;;;;;;;10.77;3.00;;;19.30;99.90;;;;;;6136643;23;20413;-81
2022/08/04 00:48:30;;;;;;;21.25;3.78;;;19.20;99.90;;;;;;6159358;23;20319;-81
2022/08/04 00:51:19;;;;;;;6.60;3.00;;;19.10;99.90;;;;;;6160455;23;20017;-81
2022/08/04 00:53:54;;;;;;;8.45;2.53;;;19.10;99.90;;;;;;6185957;23;20052;-81
2022/08/04 00:56:45;;;;;;;6.40;2.70;;;19.00;99.90;;;;;;6161193;23;20658;-81
2022/08/04 00:59:34;;;;;;;8.73;2.80;;;18.90;99.90;;;;;;6159699;23;20021;-80
2022/08/04 01:02:24;;;;;;;8.80;2.30;;;18.90;99.90;;;;;;6188519;23;20020;-82
2022/08/04 01:05:12;;;;;;;9.95;3.50;;;18.90;99.90;;;;;;6161352;23;20024;-81
2022/08/04 01:08:15;;;;;;;6.53;3.00;;;18.90;99.90;;;;;;6161838;23;20017;-81
2022/08/04 01:10:59;;;;;;;10.25;2.90;;;18.80;99.90;;;;;;6160519;23;20027;-81
2022/08/04 01:13:30;;;;;;;6.80;3.13;;;18.80;99.90;;;;;;6161104;23;20087;-82
2022/08/04 01:15:59;;;;;;;6.22;3.00;;;18.70;99.90;;;;;;6136446;23;20350;-83
2022/08/04 01:18:45;;;;;;;4.03;2.72;;;18.70;99.90;;;;;;6188405;23;20025;-81
2022/08/04 01:21:28;;;;;;;;;;;18.70;99.90;;;;;;6141022;23;20025;-82
2022/08/04 01:24:00;;;;;;;4.90;3.00;;;18.70;99.90;;;;;;6188886;23;19912;-83
2022/08/04 01:26:54;;;;;;;9.02;3.58;;;18.60;99.90;;;;;;6188189;23;20020;-80
2022/08/04 01:29:25;;;;;;;9.65;2.72;;;18.50;99.90;;;;;;6185930;23;20051;-82
2022/08/04 01:32:06;;;;;;;6.13;3.05;;;18.50;99.90;;;;;;6161995;23;20041;-81
2022/08/04 01:34:42;;;;;;;5.45;3.30;;;18.40;99.90;;;;;;6161307;23;20016;-80
2022/08/04 01:37:37;;;;;;;7.97;3.13;;;18.40;99.90;;;;;;6162309;23;20035;-81
2022/08/04 01:40:05;;;;;;;13.77;3.15;;;18.30;99.90;;;;;;6159855;23;20733;-80
2022/08/04 01:42:32;;;;;;;7.93;3.33;;;18.30;99.90;;;;;;6162603;23;20024;-80
2022/08/04 01:45:01;;;;;;;9.68;3.88;;;18.30;99.90;;;;;;6185356;23;20017;-82
2022/08/04 01:47:29;;;;;;;6.18;3.70;;;18.30;99.90;;;;;;6160690;23;20055;-80
2022/08/04 01:50:07;;;;;;;7.40;3.50;;;18.20;99.90;;;;;;6158728;23;20020;-82
2022/08/04 01:52:36;;;;;;;10.05;3.65;;;18.20;99.90;;;;;;6162018;23;20024;-80
2022/08/04 01:55:08;;;;;;;7.38;3.80;;;18.20;99.90;;;;;;6186765;23;20012;-80
2022/08/04 01:57:45;;;;;;;8.70;3.58;;;18.20;99.90;;;;;;6137187;23;20018;-85
2022/08/04 02:00:13;;;;;;;7.82;3.05;;;18.10;99.90;;;;;;6184005;23;20017;-81
2022/08/04 02:02:39;;;;;;;7.30;4.47;;;18.20;99.90;;;;;;6162232;23;20014;-81
2022/08/04 02:05:05;;;;;;;9.63;4.22;;;18.10;99.90;;;;;;6161059;23;20333;-82
2022/08/04 02:07:46;;;;;;;7.28;4.18;;;18.20;99.90;;;;;;6187219;23;20400;-83
2022/08/04 02:10:52;;;;;;;6.60;3.55;;;18.10;99.90;;;;;;6159228;23;20039;-80
2022/08/04 02:13:42;;;;;;;7.80;3.40;;;18.10;99.90;;;;;;6160324;23;20485;-81
2022/08/04 02:16:43;;;;;;;8.65;3.95;;;18.10;99.90;;;;;;6160618;23;20655;-81
2022/08/04 02:19:11;;;;;;;5.38;3.17;;;18.10;99.90;;;;;;6113954;23;20093;-80
2022/08/04 02:21:40;;;;;;;7.72;3.33;;;18.10;99.90;;;;;;6158873;23;20354;-83
2022/08/04 02:24:10;;;;;;;12.00;4.57;;;18.20;99.90;;;;;;6160444;23;20353;-81
2022/08/04 02:26:40;;;;;;;7.85;3.35;;;18.20;99.90;;;;;;6188323;23;20013;-81
2022/08/04 02:29:14;;;;;;;6.45;3.47;;;18.20;99.90;;;;;;6161224;23;20021;-81
2022/08/04 02:31:59;;;;;;;9.23;4.07;;;18.20;99.90;;;;;;6162227;23;20020;-84
2022/08/04 02:34:42;;;;;;;7.60;3.83;;;18.20;99.90;;;;;;6161359;23;20013;-81
2022/08/04 02:37:09;;;;;;;6.68;3.60;;;18.20;99.90;;;;;;6162483;23;20021;-81
2022/08/04 02:39:36;;;;;;;7.75;3.72;;;18.10;99.90;;;;;;6186147;23;20074;-80
2022/08/04 02:42:05;;;;;;;8.10;3.92;;;18.00;99.90;;;;;;6162847;23;20013;-82
2022/08/04 02:44:35;;;;;;;9.45;3.95;;;18.00;99.90;;;;;;6187286;23;20442;-82
2022/08/04 02:47:02;;;;;;;8.60;3.50;;;17.90;99.90;;;;;;6189356;23;20365;-80
2022/08/04 02:49:29;;;;;;;13.45;4.63;;;17.90;99.90;;;;;;6160625;23;20067;-85
2022/08/04 02:51:56;;;;;;;6.18;3.42;;;17.80;99.90;;;;;;6187447;23;20027;-81
2022/08/04 02:54:26;;;;;;;7.82;3.80;;;17.80;99.90;;;;;;6161104;23;20120;-80
2022/08/04 02:56:54;;;;;;;8.40;3.80;;;17.80;99.90;;;;;;6160122;23;20016;-83
2022/08/04 02:59:24;;;;;;;8.45;3.92;;;17.80;99.90;;;;;;6184154;23;20397;-82
2022/08/04 03:01:55;;;;;;;8.82;4.15;;;17.80;99.90;;;;;;6159051;23;20056;-80
2022/08/04 03:04:27;;;;;;;12.25;5.28;;;17.80;99.90;;;;;;6184936;23;20017;-80
2022/08/04 03:07:22;;;;;;;6.47;3.95;;;17.80;99.90;;;;;;6135553;23;20050;-81
2022/08/04 03:10:13;;;;;;;9.77;3.85;;;17.80;99.90;;;;;;6159790;23;20017;-81
2022/08/04 03:13:03;;;;;;;9.50;3.85;;;17.80;99.90;;;;;;6161489;23;20024;-81
2022/08/04 03:15:51;;;;;;;7.95;3.53;;;17.80;99.90;;;;;;6162241;23;20017;-80
2022/08/04 03:18:52;;;;;;;10.40;3.50;;;17.70;99.90;;;;;;6187996;23;20430;-81
2022/08/04 03:21:56;;;;;;;7.22;3.42;;;17.70;99.90;;;;;;6161743;23;20039;-81
2022/08/04 03:25:05;;;;;;;11.65;3.88;;;17.70;99.90;;;;;;6162021;23;20019;-81
2022/08/04 03:27:47;;;;;;;5.85;3.35;;;17.70;99.90;;;;;;6161368;23;20023;-80
2022/08/04 03:30:31;;;;;;;9.40;3.35;;;17.70;99.90;;;;;;6156863;23;20028;-82
2022/08/04 03:33:03;;;;;;;5.68;3.55;;;17.60;99.90;;;;;;6160935;23;20496;-80
2022/08/04 03:36:04;;;;;;;10.15;4.10;;;17.50;99.90;;;;;;6162291;23;20020;-80
2022/08/04 03:38:50;;;;;;;10.10;3.45;;;17.50;99.90;;;;;;6161725;23;20017;-81
2022/08/04 03:41:53;;;;;;;7.50;4.10;;;17.40;99.90;;;;;;6135081;23;20021;-83
2022/08/04 03:45:09;;;;;;;9.07;4.05;;;17.40;99.90;;;;;;6160527;23;20021;-83
2022/08/04 03:47:52;;;;;;;12.90;4.65;;;17.40;99.90;;;;;;6162037;23;20024;-82
2022/08/04 03:54:06;;;;;;;8.10;3.30;;;17.50;99.90;;;;;;6160599;23;20013;-81
2022/08/04 03:56:57;;;;;;;10.32;4.03;;;17.50;99.90;;;;;;6159413;23;20020;-81
2022/08/04 03:59:32;;;;;;;7.95;3.50;;;17.50;99.90;;;;;;6185498;23;20027;-83
2022/08/04 04:02:22;;;;;;;9.07;3.47;;;17.60;99.90;;;;;;6160834;23;20013;-81
2022/08/04 04:05:11;;;;;;;6.57;2.75;;;17.40;99.90;;;;;;6187620;23;20450;-81
2022/08/04 04:08:11;;;;;;;8.95;3.72;;;17.40;99.90;;;;;;6160414;23;20012;-81
2022/08/04 04:10:45;;;;;;;11.70;4.20;;;17.40;99.90;;;;;;6158852;23;20044;-80
2022/08/04 04:13:42;;;;;;;10.97;4.40;;;17.40;99.90;;;;;;6161449;23;20055;-80
2022/08/04 04:16:27;;;;;;;7.57;3.42;;;17.50;99.90;;;;;;6160185;23;20597;-80
2022/08/04 04:19:05;;;;;;;6.55;3.55;;;17.50;99.90;;;;;;6160669;23;20048;-81
2022/08/04 04:21:54;;;;;;;7.15;3.72;;;17.60;99.90;;;;;;6159354;23;20016;-80
2022/08/04 04:25:11;;;;;;;8.73;3.78;;;17.30;99.90;;;;;;6101813;23;20020;-80
2022/08/04 04:27:58;;;;;;;7.20;3.65;;;17.70;99.90;;;;;;6162261;23;20052;-82
2022/08/04 04:30:51;;;;;;;5.30;2.78;;;17.80;99.90;;;;;;6157745;23;20021;-82
2022/08/04 04:33:38;;;;;;;5.63;3.40;;;17.90;99.90;;;;;;6185987;23;20043;-80
2022/08/04 04:36:12;;;;;;;7.03;3.15;;;17.90;99.90;;;;;;6159140;23;20024;-81
2022/08/04 04:39:18;;;;;;;5.80;3.17;;;18.00;99.90;;;;;;6185880;23;20056;-80
2022/08/04 04:41:58;;;;;;;6.70;3.70;;;18.10;99.90;;;;;;6159271;23;20028;-81
2022/08/04 04:44:47;;;;;;;5.45;3.47;;;18.20;99.90;;;;;;6183625;23;20342;-83
2022/08/04 04:47:45;;;;;;;9.13;3.30;;;18.30;99.90;;;;;;6185709;23;20563;-81
2022/08/04 04:50:22;;;;;;;8.15;3.97;;;18.30;99.90;;;;;;6157527;23;20032;-81
2022/08/04 04:53:03;;;;;;;7.10;3.83;;;18.40;99.90;;;;;;6157405;23;20016;-80
2022/08/04 04:55:38;;;;;;;6.95;4.30;;;18.60;99.90;;;;;;6182856;23;20017;-82
2022/08/04 04:58:04;;;;;;;6.35;4.13;;;18.70;99.90;;;;;;6158545;23;20409;-80
2022/08/04 05:01:12;;;;;;;12.52;4.57;;;18.70;99.90;;;;;;6183931;23;20028;-81
2022/08/04 05:04:06;;;;;;;8.00;4.50;;;18.80;99.90;;;;;;6097877;23;20079;-81
2022/08/04 05:06:56;;;;;;;5.82;4.07;;;18.90;99.90;;;;;;6156608;23;20731;-81
2022/08/04 05:09:56;;;;;;;18.13;4.18;;;19.00;99.90;;;;;;6155807;23;20084;-86
2022/08/04 05:12:44;;;;;;;8.20;4.70;;;19.20;99.90;;;;;;6154855;23;20021;-84
2022/08/04 05:15:12;;;;;;;8.73;4.35;;;19.40;99.90;;;;;;6183910;23;20080;-85
2022/08/04 05:17:48;;;;;;;10.90;4.25;;;19.60;99.90;;;;;;6182796;23;20013;-81
2022/08/04 05:20:25;;;;;;;9.13;4.10;;;20.00;99.90;;;;;;6154594;23;20016;-83
2022/08/04 05:22:58;;;;;;;8.45;4.07;;;20.40;99.90;;;;;;6184848;23;20013;-81
2022/08/04 05:25:38;;;;;;;12.48;5.45;;;20.80;99.90;;;;;;6182982;23;20047;-86
2022/08/04 05:28:18;;;;;;;6.93;4.72;;;21.50;99.90;;;;;;6182212;23;20013;-84
2022/08/04 05:30:52;;;;;;;8.98;3.70;;;21.90;99.90;;;;;;6157316;23;20017;-82
2022/08/04 05:33:31;;;;;;;6.82;3.78;;;22.40;99.90;;;;;;6183688;23;20017;-81
2022/08/04 05:35:59;;;;;;;13.52;4.78;;;22.90;99.90;;;;;;6182090;23;20017;-81
2022/08/04 05:38:36;;;;;;;10.57;4.03;;;23.60;99.90;;;;;;6162177;23;20021;-83
2022/08/04 05:41:03;;;;;;;10.85;4.03;;;24.90;99.90;;;;;;6182861;23;20087;-82
2022/08/04 05:43:29;;;;;;;16.90;3.95;;;26.00;99.90;;;;;;6181515;23;20067;-83
2022/08/04 05:45:56;;;;;;;13.43;4.20;;;27.00;99.90;;;;;;6181138;23;20017;-81
2022/08/04 05:48:44;;;;;;;17.40;4.70;;;27.70;99.90;;;;;;6155751;23;20017;-84
2022/08/04 05:54:38;;;;;;;9.05;4.18;;;28.50;99.90;;;;;;6126657;23;20024;-82
2022/08/04 05:57:05;;;;;;;8.88;3.80;;;29.20;99.90;;;;;;6154745;23;20351;-82
2022/08/04 05:59:37;;;;;;;12.52;4.18;;;29.80;99.90;;;;;;6176867;23;20025;-85
2022/08/04 06:02:09;;;;;;;7.35;3.83;;;30.60;99.90;;;;;;6176086;23;20566;-85
2022/08/04 06:04:45;;;;;;;15.35;3.95;;;31.50;99.90;;;;;;6151836;23;20346;-85
2022/08/04 06:07:20;;;;;;;12.15;3.97;;;32.50;99.90;;;;;;6150133;23;20028;-85
2022/08/04 06:09:47;;;;;;;9.20;4.63;;;33.20;99.90;;;;;;6149257;23;20107;-87
2022/08/04 06:13:11;;;;;;;9.98;4.50;;;33.80;99.90;;;;;;6154207;23;20032;-85
2022/08/04 06:16:02;;;;;;;5.00;4.35;;;34.00;99.90;;;;;;6014578;23;20023;-84
2022/08/04 06:18:42;;;;;;;10.23;4.30;;;33.50;99.90;;;;;;6042057;23;20026;-83
2022/08/04 06:21:42;;;;;;;10.52;4.57;;;32.80;99.90;;;;;;6151531;23;20017;-86
2022/08/04 06:24:28;;;;;;;16.77;4.95;;;32.20;99.90;;;;;;6128855;23;20104;-85
2022/08/04 06:27:10;;;;;;;13.93;4.18;;;31.90;99.90;;;;;;6157010;23;20458;-86
2022/08/04 06:37:11;;;;;;;10.05;4.85;;;31.20;99.90;;;;;;6183023;23;20101;-82
2022/08/04 06:39:37;;;;;;;5.90;3.95;;;31.00;99.90;;;;;;6183128;23;20017;-82
2022/08/04 06:42:03;;;;;;;9.90;4.88;;;30.90;99.90;;;;;;6184672;23;20013;-80
2022/08/04 06:44:30;;;;;;;9.27;4.05;;;30.60;99.90;;;;;;6179448;23;20085;-84
2022/08/04 06:46:56;;;;;;;9.75;4.10;;;30.50;99.90;;;;;;6182221;23;20024;-82
2022/08/04 06:49:22;;;;;;;12.75;4.97;;;30.50;99.90;;;;;;6130489;23;20063;-81
2022/08/04 06:51:49;;;;;;;7.10;4.07;;;30.50;99.90;;;;;;6154927;23;20017;-81
2022/08/04 06:54:15;;;;;;;9.02;4.00;;;30.40;99.90;;;;;;6149995;23;20533;-84
2022/08/04 06:56:44;;;;;;;8.43;3.40;;;30.40;99.90;;;;;;6152037;23;20020;-85
2022/08/04 06:59:11;;;;;;;11.13;3.15;;;30.40;99.90;;;;;;6151127;23;20013;-83
2022/08/04 07:01:38;;;;;;;6.80;3.53;;;30.30;99.90;;;;;;6153568;23;20041;-83
2022/08/04 07:04:04;;;;;;;5.30;2.58;;;30.50;99.90;;;;;;6177898;23;20083;-84
2022/08/04 07:06:35;;;;;;;10.13;3.00;;;30.20;99.90;;;;;;6177656;23;20093;-83
2022/08/04 07:09:02;;;;;;;8.82;2.53;;;30.60;99.90;;;;;;6130960;23;20684;-84
2022/08/04 07:11:28;;;;;;;7.82;3.45;;;30.40;99.90;;;;;;6181346;23;20075;-84
2022/08/04 07:13:55;;;;;;;8.93;3.25;;;30.30;99.90;;;;;;6182772;23;20101;-81
2022/08/04 07:16:23;;;;;;;7.78;3.42;;;30.30;99.90;;;;;;6154708;23;20063;-84
2022/08/04 07:18:48;;;;;;;6.68;3.05;;;30.30;99.90;;;;;;6154038;23;20017;-83
2022/08/04 07:21:21;;;;;;;9.93;2.88;;;30.30;99.90;;;;;;6156048;23;20017;-83
2022/08/04 07:23:47;;;;;;;11.20;3.35;;;30.20;99.90;;;;;;6185116;23;20013;-80
2022/08/04 07:26:14;;;;;;;13.68;3.95;;;30.10;99.90;;;;;;6186290;23;20429;-81
2022/08/04 07:28:40;;;;;;;7.72;3.05;;;30.10;99.90;;;;;;6183883;23;20036;-78
2022/08/04 07:31:10;;;;;;;9.45;3.25;;;30.00;99.90;;;;;;6133742;23;20401;-78
2022/08/04 07:33:36;;;;;;;9.95;4.13;;;30.00;99.90;;;;;;6161417;23;20013;-80
2022/08/04 07:36:02;;;;;;;7.50;2.58;;;30.00;99.90;;;;;;6135217;23;20020;-82
2022/08/04 07:38:28;;;;;;;10.10;2.55;;;30.10;99.90;;;;;;6160634;23;20021;-82
2022/08/04 07:40:54;;;;;;;8.52;1.80;;;30.10;99.90;;;;;;6159326;23;20024;-79
2022/08/04 07:43:20;;;;;;;10.25;1.75;;;30.30;99.90;;;;;;6184853;23;20021;-83
2022/08/04 07:45:46;;;;;;;5.95;1.55;;;30.30;99.90;;;;;;6182006;23;20022;-82
2022/08/04 07:48:13;;;;;;;7.25;2.10;;;30.40;99.90;;;;;;6183365;23;20086;-79
2022/08/04 07:50:43;;;;;;;12.52;1.80;;;30.50;99.90;;;;;;6136406;23;20021;-82
2022/08/04 07:53:11;;;;;;;14.57;3.00;;;30.60;99.90;;;;;;6184465;23;20020;-82
2022/08/04 07:55:37;;;;;;;9.05;2.42;;;30.60;99.90;;;;;;6158480;23;20045;-80
2022/08/04 07:58:02;;;;;;;17.58;2.58;;;30.60;99.90;;;;;;6158906;23;20024;-80
2022/08/04 08:00:28;;;;;;;8.63;2.50;;;30.50;99.90;;;;;;6184305;23;20017;-81
2022/08/04 08:02:55;;;;;;;7.55;1.92;;;30.60;99.90;;;;;;6183416;23;20025;-78
2022/08/04 08:05:21;;;;;;;8.60;2.08;;;30.60;99.90;;;;;;6185449;23;20012;-78
2022/08/04 08:07:47;;;;;;;16.88;3.90;;;30.50;99.90;;;;;;6159583;23;20658;-82
2022/08/04 08:10:14;;;;;;;13.82;2.42;;;30.60;99.90;;;;;;6174441;23;20021;-79
2022/08/04 08:12:40;;;;;;;8.38;2.17;;;30.70;99.90;;;;;;6150225;23;20048;-84
2022/08/04 08:15:08;;;;;;;8.10;2.33;;;30.80;99.90;;;;;;6176817;23;20013;-85
2022/08/04 08:17:35;;;;;;;4.28;2.08;;;30.80;99.90;;;;;;6178527;23;20449;-85
2022/08/04 08:20:01;;;;;;;11.25;2.28;;;30.80;99.90;;;;;;6177419;23;20017;-85
2022/08/04 08:22:27;;;;;;;9.20;2.03;;;30.90;99.90;;;;;;6153138;23;20024;-85
2022/08/04 08:24:53;;;;;;;10.32;2.00;;;30.80;99.90;;;;;;6148584;23;20068;-84
2022/08/04 08:27:19;;;;;;;14.00;1.88;;;30.80;99.90;;;;;;6148909;23;20560;-84
2022/08/04 08:29:45;;;;;;;7.55;1.88;;;30.60;99.90;;;;;;6154356;23;20123;-83
2022/08/04 08:32:12;;;;;;;9.77;2.50;;;30.60;99.90;;;;;;6179509;23;20047;-81
2022/08/04 08:34:40;;;;;;;9.95;2.15;;;30.60;99.90;;;;;;6184304;23;20096;-80
2022/08/04 08:37:18;;;;;;;7.75;2.08;;;30.50;99.90;;;;;;6155465;23;20079;-84
2022/08/04 08:39:58;;;;;;;9.60;2.70;;;30.50;99.90;;;;;;6179775;23;20021;-82
2022/08/04 08:42:50;;;;;;;7.63;1.80;;;30.40;99.90;;;;;;6172224;23;20107;-84
2022/08/04 08:45:43;;;;;;;5.07;1.95;;;30.30;99.90;;;;;;6175488;23;20302;-82
2022/08/04 08:56:21;;;;;;;30.95;3.05;;;30.30;99.90;;;;;;6180438;23;20033;-82
2022/08/04 08:59:09;;;;;;;9.35;3.03;;;30.70;99.90;;;;;;6127235;23;20461;-80
2022/08/04 09:05:39;;;;;;;6.97;2.55;;;31.00;99.90;;;;;;6176606;23;20290;-82
2022/08/04 09:08:18;;;;;;;9.57;2.25;;;31.20;99.90;;;;;;6178053;23;20021;-81
2022/08/04 09:10:53;;;;;;;8.18;2.42;;;31.20;99.90;;;;;;6150277;23;20033;-82
2022/08/04 09:14:24;;;;;;;9.02;2.35;;;31.20;99.90;;;;;;6164085;23;20074;-85
2022/08/04 09:22:01;;;;;;;6.22;1.77;;;31.70;99.90;;;;;;6117961;23;20069;-84
2022/08/04 09:25:54;;;;;;;7.22;1.75;;;32.00;99.90;;;;;;5999657;23;20034;-84
2022/08/04 09:28:28;;;;;;;10.02;3.10;;;32.30;99.90;;;;;;5969890;23;20034;-82
2022/08/04 09:31:32;;;;;;;10.65;2.70;;;32.40;99.90;;;;;;6023548;23;20075;-83
2022/08/04 09:34:42;;;;;;;3.60;1.95;;;32.40;99.90;;;;;;6167626;23;20029;-84
2022/08/04 09:38:25;;;;;;;7.40;2.25;;;32.30;99.90;;;;;;6178804;23;20020;-83
2022/08/04 09:45:03;;;;;;;6.70;2.53;;;32.20;99.70;;;;;;6088145;23;20470;-85
2022/08/04 09:48:30;;;;;;;20.90;8.90;;;31.90;99.90;;;;;;6063149;23;20526;-85
2022/08/04 09:51:52;;;;;;;11.82;2.58;;;31.80;99.90;;;;;;6021835;23;20053;-83
2022/08/04 09:54:42;;;;;;;95.25;9.23;;;31.50;99.90;;;;;;6135615;23;20021;-83
2022/08/04 09:57:30;;;;;;;4.80;2.45;;;31.40;99.90;;;;;;6153047;23;20013;-82
2022/08/04 10:00:12;;;;;;;8.38;3.30;;;31.20;99.90;;;;;;6128916;23;20017;-83
2022/08/04 10:02:41;;;;;;;10.38;3.15;;;31.10;99.90;;;;;;6154174;23;20080;-83
2022/08/04 10:05:15;;;;;;;4.95;1.85;;;31.10;99.90;;;;;;6155169;23;20013;-83
2022/08/04 10:08:05;;;;;;;10.82;3.15;;;31.10;99.90;;;;;;6183659;23;20032;-83
2022/08/04 10:10:33;;;;;;;5.20;2.05;;;30.90;99.90;;;;;;6094274;23;20696;-81
2022/08/04 10:13:36;;;;;;;4.55;1.83;;;30.80;99.90;;;;;;6180940;23;20461;-80
2022/08/04 10:16:29;;;;;;;11.93;2.95;;;30.70;99.90;;;;;;6155695;23;20092;-80
2022/08/04 10:19:20;;;;;;;7.78;2.47;;;30.50;99.90;;;;;;6153811;23;20028;-81
2022/08/04 10:22:03;;;;;;;10.77;3.05;;;30.50;99.90;;;;;;6128746;23;20036;-81
2022/08/04 10:24:53;;;;;;;7.80;2.70;;;30.40;99.90;;;;;;6153520;23;20328;-80
2022/08/04 10:27:33;;;;;;;8.32;1.98;;;30.20;99.90;;;;;;6153626;23;20021;-80
2022/08/04 10:30:10;;;;;;;5.13;1.50;;;30.30;99.90;;;;;;6174950;23;20020;-80
2022/08/04 10:33:02;;;;;;;4.78;1.35;;;30.20;99.90;;;;;;6149207;23;20122;-82
2022/08/04 10:35:36;;;;;;;8.43;1.63;;;30.00;99.90;;;;;;6097825;23;20017;-83
2022/08/04 10:38:18;;;;;;;8.85;1.65;;;30.00;99.90;;;;;;6148797;23;20102;-84
2022/08/04 10:41:08;;;;;;;6.95;1.23;;;29.90;99.90;;;;;;6176433;23;20041;-84
2022/08/04 10:43:58;;;;;;;5.43;0.85;;;29.90;99.90;;;;;;6183101;23;20381;-84
2022/08/04 10:46:31;;;;;;;5.88;1.20;;;30.00;99.90;;;;;;6150987;23;20359;-84
2022/08/04 10:49:06;;;;;;;4.40;1.13;;;30.20;99.90;;;;;;6150163;23;20421;-85
2022/08/04 10:51:53;;;;;;;6.50;1.23;;;30.20;99.90;;;;;;6151667;23;20071;-84
2022/08/04 10:54:31;;;;;;;7.75;1.50;;;30.20;99.90;;;;;;6151828;23;20055;-85
2022/08/04 10:57:05;;;;;;;4.18;1.10;;;30.10;99.90;;;;;;6153943;23;20032;-85
2022/08/04 10:59:44;;;;;;;6.35;0.85;;;30.10;99.90;;;;;;6152669;23;20025;-84
2022/08/04 11:02:34;;;;;;;12.00;2.17;;;30.10;99.90;;;;;;6178604;23;20087;-84
2022/08/04 11:05:26;;;;;;;5.25;1.25;;;30.10;99.90;;;;;;6153034;23;20442;-85
2022/08/04 11:07:58;;;;;;;6.45;1.33;;;30.10;99.90;;;;;;6153769;23;20013;-85
2022/08/04 11:10:28;;;;;;;12.23;2.05;;;30.20;99.90;;;;;;6177513;23;20116;-84
2022/08/04 11:13:00;;;;;;;8.70;1.90;;;30.20;99.90;;;;;;6178656;23;20048;-84
2022/08/04 11:16:05;;;;;;;9.18;1.88;;;30.20;99.90;;;;;;6154249;23;20558;-85
2022/08/04 11:18:57;;;;;;;5.38;1.15;;;30.20;99.90;;;;;;6089094;23;20024;-83
2022/08/04 11:21:33;;;;;;;4.07;1.10;;;30.20;99.90;;;;;;6149370;23;20021;-84
2022/08/04 11:24:06;;;;;;;6.40;0.90;;;30.00;99.90;;;;;;6152097;23;20096;-83
2022/08/04 11:26:41;;;;;;;3.00;0.82;;;29.80;99.90;;;;;;6128200;23;20024;-84
2022/08/04 11:29:43;;;;;;;9.20;1.25;;;29.70;99.90;;;;;;6150978;23;20083;-83
2022/08/04 11:32:18;;;;;;;4.63;1.00;;;29.60;99.90;;;;;;6136179;23;20023;-82
2022/08/04 11:34:51;;;;;;;2.92;0.68;;;29.60;99.90;;;;;;6126906;23;20025;-83
2022/08/04 11:37:21;;;;;;;2.78;0.90;;;29.60;99.90;;;;;;6154690;23;20444;-82
2022/08/04 11:39:57;;;;;;;4.65;0.88;;;29.50;99.90;;;;;;6147068;23;20029;-82
2022/08/04 11:42:33;;;;;;;10.32;1.30;;;29.40;99.90;;;;;;6178592;23;20021;-83
2022/08/04 11:45:05;;;;;;;5.13;0.73;;;29.30;99.90;;;;;;6176242;23;20013;-84
2022/08/04 11:47:38;;;;;;;2.20;1.00;;;29.20;99.90;;;;;;6177344;23;20055;-83
2022/08/04 11:50:32;;;;;;;3.97;0.65;;;29.30;99.90;;;;;;6149969;23;20013;-83
2022/08/04 11:52:59;;;;;;;3.05;0.70;;;29.10;99.90;;;;;;6112861;23;20049;-83
2022/08/04 11:55:26;;;;;;;3.40;0.60;;;29.00;99.90;;;;;;6178255;23;20016;-82
2022/08/04 11:57:53;;;;;;;3.60;1.10;;;28.80;99.90;;;;;;6179682;23;20017;-83
2022/08/04 12:00:19;;;;;;;3.08;0.60;;;28.70;99.90;;;;;;6174851;23;20020;-82
2022/08/04 12:03:06;;;;;;;2.78;0.65;;;28.60;99.90;;;;;;6176992;23;20078;-82
2022/08/04 12:05:42;;;;;;;3.10;0.60;;;28.50;99.90;;;;;;6176644;23;20446;-82
2022/08/04 12:08:43;;;;;;;2.92;0.85;;;28.30;99.90;;;;;;6179837;23;20017;-83
2022/08/04 12:11:21;;;;;;;2.03;0.68;;;28.20;99.90;;;;;;6151523;23;20052;-84
2022/08/04 12:14:11;;;;;;;2.10;0.60;;;28.10;99.90;;;;;;6152429;23;20661;-83
2022/08/04 12:16:49;;;;;;;3.08;0.75;;;28.00;99.90;;;;;;6178618;23;20778;-83
2022/08/04 12:19:28;;;;;;;2.25;0.77;;;27.80;99.90;;;;;;6152235;23;20075;-82
2022/08/04 12:21:58;;;;;;;2.38;0.63;;;27.60;99.90;;;;;;6152830;23;20239;-84
2022/08/04 12:24:37;;;;;;;1.92;0.80;;;27.50;99.90;;;;;;6152765;23;20021;-83
2022/08/04 12:27:16;;;;;;;4.82;0.77;;;27.30;99.90;;;;;;6177976;23;20092;-81
2022/08/04 12:29:44;;;;;;;6.47;0.95;;;27.30;99.90;;;;;;6148838;23;20032;-84
2022/08/04 12:32:20;;;;;;;3.90;0.85;;;27.00;99.90;;;;;;6149304;23;20048;-83
2022/08/04 12:34:53;;;;;;;3.47;0.70;;;26.90;99.90;;;;;;6148232;23;20012;-82
2022/08/04 12:37:43;;;;;;;7.00;0.68;;;26.80;99.90;;;;;;6177204;23;20016;-84
2022/08/04 12:40:19;;;;;;;5.88;0.80;;;26.70;99.90;;;;;;6175414;23;20056;-84
2022/08/04 12:43:02;;;;;;;3.72;0.88;;;26.70;99.90;;;;;;6151710;23;20076;-83
2022/08/04 12:45:29;;;;;;;3.42;0.60;;;26.70;99.90;;;;;;6177537;23;20019;-84
2022/08/04 12:47:57;;;;;;;3.70;0.50;;;26.70;99.90;;;;;;6174830;23;20020;-83
2022/08/04 12:50:23;;;;;;;5.35;0.57;;;27.00;99.90;;;;;;6151625;23;20045;-84
2022/08/04 12:52:55;;;;;;;2.13;0.65;;;26.70;99.90;;;;;;6178844;23;20043;-84
2022/08/04 12:55:24;;;;;;;3.30;0.80;;;26.70;99.90;;;;;;6174574;23;20023;-82
2022/08/04 12:57:52;;;;;;;2.35;0.63;;;26.90;99.90;;;;;;6175340;23;20017;-84
2022/08/04 13:00:32;;;;;;;1.98;0.70;;;26.70;99.90;;;;;;6178333;23;20096;-83
2022/08/04 13:03:10;;;;;;;5.25;0.60;;;26.90;99.90;;;;;;6162712;23;20041;-84
2022/08/04 13:05:44;;;;;;;;;;;26.90;99.90;;;;;;6184844;23;20036;-85
2022/08/04 13:08:11;;;;;;;2.40;0.68;;;26.80;99.90;;;;;;6158503;23;20281;-85
2022/08/04 13:10:40;;;;;;;2.15;0.80;;;26.80;99.90;;;;;;6157975;23;20104;-83
2022/08/04 13:13:14;;;;;;;2.15;0.65;;;26.90;99.90;;;;;;6159753;23;20013;-83
2022/08/04 13:15:40;;;;;;;1.35;0.50;;;27.00;99.90;;;;;;6182763;23;20013;-83
2022/08/04 13:18:10;;;;;;;3.92;0.50;;;27.00;99.90;;;;;;6186406;23;20327;-84
2022/08/04 13:20:38;;;;;;;1.67;0.50;;;26.90;99.90;;;;;;6135334;23;20117;-83
2022/08/04 13:23:06;;;;;;;2.55;0.75;;;27.20;99.90;;;;;;6158303;23;20021;-84
2022/08/04 13:25:34;;;;;;;3.92;0.50;;;27.30;99.90;;;;;;6132716;23;20124;-84
2022/08/04 13:28:01;;;;;;;3.67;0.65;;;27.40;99.90;;;;;;6160271;23;20013;-83
2022/08/04 13:30:32;;;;;;;2.45;0.60;;;27.50;99.90;;;;;;6182331;23;20017;-83
2022/08/04 13:33:04;;;;;;;26.73;6.93;;;27.80;99.90;;;;;;6182741;23;20042;-83
2022/08/04 13:35:33;;;;;;;116.65;17.90;;;28.00;99.90;;;;;;6184315;23;20013;-84
2022/08/04 13:38:00;;;;;;;13.88;3.75;;;28.00;99.90;;;;;;6184113;23;20013;-82
2022/08/04 13:40:27;;;;;;;6.07;1.65;;;28.00;99.90;;;;;;6159036;23;20021;-82
2022/08/04 13:42:55;;;;;;;2.15;0.40;;;28.00;99.90;;;;;;6160335;23;20040;-83
2022/08/04 13:45:23;;;;;;;2.47;0.80;;;28.10;99.90;;;;;;6184505;23;20016;-83
2022/08/04 13:47:57;;;;;;;2.75;0.88;;;28.20;99.90;;;;;;6159768;23;20537;-83
2022/08/04 13:50:26;;;;;;;2.67;0.70;;;28.20;99.90;;;;;;6155848;23;20017;-83
2022/08/04 13:52:53;;;;;;;1.63;0.95;;;28.20;99.90;;;;;;6156930;23;20032;-84
2022/08/04 13:55:24;;;;;;;1.92;0.50;;;28.20;99.90;;;;;;6183964;23;20016;-85
2022/08/04 13:57:55;;;;;;;2.70;0.70;;;28.30;99.90;;;;;;6156598;23;20028;-83
2022/08/04 14:00:22;;;;;;;4.50;1.08;;;28.30;99.90;;;;;;6158535;23;20013;-83
2022/08/04 14:03:04;;;;;;;2.67;0.55;;;28.30;99.90;;;;;;6160274;23;20017;-83
2022/08/04 14:05:30;;;;;;;2.70;0.80;;;28.30;99.90;;;;;;6177036;23;20105;-85
2022/08/04 14:08:12;;;;;;;8.75;1.02;;;28.50;99.90;;;;;;6157555;23;20024;-82
2022/08/04 14:10:38;;;;;;;1.77;0.52;;;28.50;99.90;;;;;;6178116;23;20017;-81
2022/08/04 14:13:05;;;;;;;2.78;1.05;;;28.40;99.90;;;;;;6146645;23;20044;-83
2022/08/04 14:15:44;;;;;;;3.72;0.60;;;28.40;99.90;;;;;;6144451;23;20341;-81